Sneads, FL (32460)

11:11 PM CST on February 09, 2016 (GMT -0600)
Melecky's Land | | Change Station
CLOSE
Current Station
Personal Weather Station
Location: Chattahoochee, FL
Elevation: 217 ft
Nearby Weather Stations
Active Advisory: Freeze Warning

Elev 217 ft 30.70 °N, 84.84 °W | Updated 9 minutes ago

Clear
Clear
39.0 °F
Feels Like 39 °F
N
0.0
Wind Variable Wind from South

Today
High -- | Low -- °F
--% Chance of Precip.
Yesterday
High -- | Low -- °F
Precip. -- in
Pressure 30.12 in
Visibility 10.0 miles
Clouds Clear
Windchill 39 °F
Dew Point 24 °F
Humidity 54%
Rainfall 0.00 in
Snow Depth Not available.
6:25 AM 5:22 PM
Waxing Crescent, 3% visible
METAR KMAI 100453Z AUTO 00000KT 10SM CLR 02/M04 A3012 RMK AO1 SLP198 T00171044
Pressure 30.12 in
Visibility 10.0 miles
Clouds Clear
Windchill 39 °F
Dew Point 24 °F
Humidity 54%
Rainfall 0.00 in
Snow Depth Not available.
6:25 AM 5:22 PM
Waxing Crescent, 3% visible
METAR KMAI 100453Z AUTO 00000KT 10SM CLR 02/M04 A3012 RMK AO1 SLP198 T00171044

10-Day Weather Forecast

Almanac

Astronomy

Feb. 09, 2016 Rise Set
Actual Time
Civil Twilight
Nautical Twilight
Astronomical Twilight
Moon
Length of Visible Light
Length of Day
Tomorrow will be .
, % of the Moon is Illuminated

Today's Extremes

State Highs State Lows

Community

WunderPhotos

Upload Photos

1,891,818 photos uploaded!

WunderBlog® & News

Nearby

Air Quality

  Air Quality AQ Index Pollutant
Not available.

Snow Depth

Station Depth Elevation

Earthquake Activity

City Distance Mag. Time & Date
Minimum magnitude displayed is 2.5.

Coastal Water Temperatures

Place Temperature

Stations

Nearby Weather Stations

Station Location Temp. Windchill Dew Point Humidity Wind Precip. Elev Updated Type
                   

Watches & Warnings

Freeze Warning
Issued: 7:18 PM CST Feb. 9, 2016 – National Weather Service

... Freeze warning remains in effect until 9 am EST /8 am CST/
Wednesday...

* min temperatures... upper 20s to near 30 tonight.

Precautionary/preparedness actions...

A freeze warning means sub-freezing temperatures are imminent or
highly likely. Exposure to freezing temperatures may damage some
unprotected... sensitive vegetation.



Harrigan